Time;durP1;ratioP1;P1;durP2;ratioP2;P2;SDS_P1;SDS_P2;PMS_P1;PMS_P2;Temp;Humidity;BMP_temperature;BMP_pressure;BME280_temperature;BME280_humidity;BME280_pressure;Samples;Min_cycle;Max_cycle;Signal;HPM_P1;HPM_P2
2023/02/21 02:17:27;;;;;;;6.45;3.10;;;9.20;99.90;;;;;;2603651;54;20077;31
2023/02/21 02:44:12;;;;;;;2.97;2.10;;;9.10;99.90;;;;;;2721059;39;20552;31
2023/02/21 02:47:06;;;;;;;4.97;2.55;;;9.10;99.90;;;;;;2603835;54;20026;31
2023/02/21 02:49:55;;;;;;;2.75;2.10;;;9.10;99.90;;;;;;2604208;54;20894;31
2023/02/21 03:02:11;;;;;;;;;;;;;;;;;;;;;
2023/02/21 03:18:25;;;;;;;3.45;2.05;;;9.00;99.90;;;;;;2603724;54;20030;31
2023/02/21 03:26:52;;;;;;;2.75;2.33;;;9.00;99.90;;;;;;2603157;54;20242;31
2023/02/21 03:30:30;;;;;;;2.88;2.15;;;9.00;99.90;;;;;;2603742;54;20860;31
2023/02/21 03:36:41;;;;;;;3.13;2.08;;;9.00;99.90;;;;;;2603564;54;20059;31
2023/02/21 03:39:35;;;;;;;2.50;1.83;;;9.00;99.90;;;;;;2603460;54;20022;31
2023/02/21 03:51:08;;;;;;;2.85;2.13;;;9.00;99.90;;;;;;2602821;54;20907;31
2023/02/21 04:01:31;;;;;;;3.55;2.30;;;9.10;99.90;;;;;;2602968;54;20025;31
2023/02/21 04:04:15;;;;;;;3.83;2.70;;;9.00;99.90;;;;;;2702005;39;21645;31
2023/02/21 04:07:00;;;;;;;7.90;3.00;;;9.00;99.90;;;;;;2621932;46;20023;31
2023/02/21 04:09:49;;;;;;;5.10;3.47;;;9.00;99.90;;;;;;2602982;54;20846;31
2023/02/21 04:12:42;;;;;;;5.60;2.80;;;9.00;99.90;;;;;;2621856;46;20049;31
2023/02/21 04:15:23;;;;;;;3.38;2.42;;;9.00;99.90;;;;;;2603609;54;20601;31
2023/02/21 04:18:06;;;;;;;4.30;3.00;;;9.10;99.90;;;;;;2702009;39;21591;31
2023/02/21 04:20:55;;;;;;;4.73;2.73;;;9.10;99.90;;;;;;2603696;54;20026;31
2023/02/21 04:23:34;;;;;;;4.75;3.08;;;9.00;99.90;;;;;;2602941;54;20034;31
2023/02/21 04:26:35;;;;;;;;;;;;;;;;;;;;;
2023/02/21 04:29:28;;;;;;;4.78;3.10;;;9.10;99.90;;;;;;2603582;54;20831;31
2023/02/21 04:32:15;;;;;;;5.33;3.40;;;9.10;99.90;;;;;;2603463;54;20034;31
2023/02/21 04:34:56;;;;;;;4.05;3.03;;;9.10;99.90;;;;;;2603505;54;20756;31
2023/02/21 04:38:08;;;;;;;4.55;3.17;;;9.10;99.90;;;;;;2602846;54;20888;31
2023/02/21 04:41:00;;;;;;;5.15;3.40;;;9.10;99.90;;;;;;2603293;54;20907;31
2023/02/21 04:43:38;;;;;;;5.15;3.60;;;9.20;99.90;;;;;;2613131;46;20034;31
2023/02/21 04:46:41;;;;;;;5.83;3.43;;;9.20;99.90;;;;;;2603449;54;20085;31
2023/02/21 04:49:24;;;;;;;4.32;3.45;;;9.20;99.90;;;;;;2603710;54;20896;31
2023/02/21 04:55:34;;;;;;;4.85;3.22;;;9.20;99.90;;;;;;2603630;54;20026;31
2023/02/21 05:04:01;;;;;;;5.97;3.87;;;9.20;99.90;;;;;;2621992;46;20027;31
2023/02/21 05:09:30;;;;;;;5.85;4.35;;;9.20;99.90;;;;;;2602972;54;20026;31
2023/02/21 05:19:11;;;;;;;5.35;4.07;;;9.10;99.90;;;;;;2603204;54;20763;31
2023/02/21 05:28:02;;;;;;;6.60;4.70;;;9.10;99.90;;;;;;2621434;46;20023;31
2023/02/21 05:30:55;;;;;;;6.55;4.72;;;9.00;99.90;;;;;;2701517;39;20510;31
2023/02/21 05:33:36;;;;;;;5.95;4.60;;;9.00;99.90;;;;;;2603028;54;20030;31
2023/02/21 05:36:16;;;;;;;6.00;4.70;;;9.10;99.90;;;;;;2603169;54;20078;31
2023/02/21 05:39:02;;;;;;;5.80;4.25;;;9.00;99.90;;;;;;2720016;39;20474;31
2023/02/21 05:48:21;;;;;;;6.70;4.60;;;9.10;99.90;;;;;;2621507;46;20859;31
2023/02/21 05:51:35;;;;;;;7.82;3.67;;;9.00;99.90;;;;;;2603278;54;20026;31
2023/02/21 05:54:21;;;;;;;4.07;3.35;;;9.10;99.90;;;;;;2603449;54;20027;31
2023/02/21 06:00:28;;;;;;;5.07;3.77;;;9.20;99.90;;;;;;2603299;54;25028;31
2023/02/21 06:03:29;;;;;;;5.22;3.60;;;9.20;99.90;;;;;;2602912;54;20026;31
2023/02/21 06:08:54;;;;;;;3.60;3.10;;;9.30;99.90;;;;;;2603445;54;20023;31
2023/02/21 06:14:57;;;;;;;7.32;3.00;;;9.30;99.90;;;;;;2603256;54;20890;31
2023/02/21 06:17:45;;;;;;;7.35;3.22;;;9.30;99.90;;;;;;2603182;54;20023;31
2023/02/21 06:23:13;;;;;;;3.97;3.20;;;9.30;99.90;;;;;;2607768;47;20014;31
2023/02/21 06:26:12;;;;;;;6.20;3.00;;;9.30;99.90;;;;;;2603143;54;20032;31
2023/02/21 06:29:20;;;;;;;;;;;9.30;99.90;;;;;;2621540;47;20061;31
2023/02/21 06:34:40;;;;;;;5.18;3.95;;;9.40;99.90;;;;;;2602875;54;20033;31
2023/02/21 06:40:33;;;;;;;7.30;4.32;;;9.40;99.90;;;;;;2603000;54;20031;31
2023/02/21 07:02:35;;;;;;;6.00;4.57;;;9.40;99.90;;;;;;2621679;46;20027;31
2023/02/21 07:05:40;;;;;;;7.20;5.20;;;9.40;99.90;;;;;;2603615;54;20022;31
2023/02/21 07:08:28;;;;;;;11.40;5.07;;;9.40;99.90;;;;;;2603789;54;20797;31
2023/02/21 07:11:21;;;;;;;6.47;4.50;;;9.40;99.90;;;;;;2603652;54;20822;31
2023/02/21 07:14:14;;;;;;;5.25;4.00;;;9.40;99.90;;;;;;2603733;54;20030;31
2023/02/21 07:16:53;;;;;;;5.27;4.37;;;9.40;99.90;;;;;;2603664;54;20085;31
2023/02/21 07:22:33;;;;;;;7.75;5.05;;;9.50;99.90;;;;;;2603620;54;20893;31
2023/02/21 07:31:21;;;;;;;6.13;4.60;;;9.60;99.90;;;;;;2604069;54;20023;31
2023/02/21 07:34:07;;;;;;;15.80;5.20;;;9.60;99.90;;;;;;2622250;46;20023;31
2023/02/21 07:37:25;;;;;;;6.63;5.65;;;9.60;99.90;;;;;;2604338;46;20022;31
2023/02/21 07:40:04;;;;;;;8.07;5.90;;;9.60;99.90;;;;;;2603633;54;20891;31
2023/02/21 07:42:47;;;;;;;6.70;5.53;;;9.60;99.90;;;;;;2603669;54;20088;31
2023/02/21 07:45:28;;;;;;;8.37;6.33;;;9.60;99.90;;;;;;2610023;46;20031;31
2023/02/21 07:48:38;;;;;;;7.68;5.53;;;9.50;99.90;;;;;;2603403;54;20026;31
2023/02/21 08:01:07;;;;;;;8.38;7.05;;;9.40;99.90;;;;;;2603421;54;20019;31
2023/02/21 08:16:28;;;;;;;6.55;5.30;;;9.40;99.90;;;;;;2621494;46;19930;31
2023/02/21 08:41:53;;;;;;;10.80;6.43;;;9.40;99.90;;;;;;2603291;54;20871;31
2023/02/21 08:54:47;;;;;;;4.82;3.58;;;9.60;99.90;;;;;;2603305;54;20081;31
2023/02/21 08:57:40;;;;;;;3.85;3.10;;;9.90;99.90;;;;;;2603319;54;20092;31
2023/02/21 09:00:31;;;;;;;5.68;3.20;;;10.00;99.90;;;;;;2603055;54;20130;31
2023/02/21 09:03:23;;;;;;;5.20;3.30;;;10.00;99.90;;;;;;2603490;54;20023;31
2023/02/21 09:06:32;;;;;;;4.78;3.88;;;9.90;99.90;;;;;;2621500;46;20030;31
2023/02/21 09:12:07;;;;;;;4.13;3.72;;;9.80;99.90;;;;;;2603161;54;20026;31
2023/02/21 09:18:03;;;;;;;4.18;2.95;;;9.80;99.90;;;;;;2602988;54;20869;31
2023/02/21 09:29:34;;;;;;;2.10;1.42;;;9.70;99.90;;;;;;2621491;46;20057;31
2023/02/21 09:32:34;;;;;;;2.38;1.23;;;9.80;99.90;;;;;;2603541;54;20030;31
2023/02/21 09:36:03;;;;;;;3.15;1.27;;;9.90;99.90;;;;;;2603338;54;20026;31
2023/02/21 09:38:46;;;;;;;2.20;1.10;;;9.90;99.90;;;;;;2602966;54;20775;31
2023/02/21 09:44:44;;;;;;;1.95;1.30;;;10.10;99.90;;;;;;2603123;54;20934;31
2023/02/21 09:47:46;;;;;;;1.55;1.00;;;10.20;99.90;;;;;;2602939;54;20053;31
2023/02/21 09:50:50;;;;;;;2.15;0.82;;;10.40;99.90;;;;;;2621519;46;20033;31
2023/02/21 09:53:39;;;;;;;2.05;1.20;;;10.60;99.90;;;;;;2603003;54;20981;31
2023/02/21 09:56:36;;;;;;;3.65;0.95;;;10.80;99.90;;;;;;2603258;54;20031;31
2023/02/21 09:59:15;;;;;;;1.33;0.85;;;10.90;99.90;;;;;;2602915;54;20033;31
2023/02/21 10:01:57;;;;;;;1.80;0.90;;;11.00;99.90;;;;;;2603179;54;20744;31
2023/02/21 10:04:32;;;;;;;2.00;1.02;;;11.10;99.90;;;;;;2603286;54;20026;31
2023/02/21 10:10:24;;;;;;;2.92;1.20;;;11.50;99.90;;;;;;2621332;47;20818;31
2023/02/21 10:13:25;;;;;;;2.08;1.08;;;11.90;99.90;;;;;;2603102;54;20178;31
2023/02/21 10:16:11;;;;;;;2.90;1.10;;;12.10;99.90;;;;;;2602958;54;20093;31
2023/02/21 10:19:00;;;;;;;1.20;0.73;;;12.40;99.90;;;;;;2602884;54;20082;31
2023/02/21 10:21:46;;;;;;;1.55;1.15;;;12.50;99.90;;;;;;2602846;54;21171;31
2023/02/21 10:24:22;;;;;;;1.73;1.00;;;12.60;99.90;;;;;;2602927;54;20880;31
2023/02/21 10:27:09;;;;;;;1.90;1.15;;;12.60;99.90;;;;;;2603053;54;20027;31
2023/02/21 10:29:54;;;;;;;3.45;1.10;;;12.50;99.90;;;;;;2602961;54;20033;31
2023/02/21 10:32:34;;;;;;;3.00;1.23;;;12.60;99.90;;;;;;2602876;54;20901;31
2023/02/21 10:35:11;;;;;;;2.65;1.70;;;12.50;99.90;;;;;;2621490;47;20128;31
2023/02/21 10:37:53;;;;;;;1.95;1.20;;;12.50;99.90;;;;;;2603663;54;20043;31
2023/02/21 10:40:46;;;;;;;1.90;1.10;;;12.50;99.90;;;;;;2603754;54;20084;31
2023/02/21 10:43:28;;;;;;;1.50;1.00;;;12.70;99.90;;;;;;2603413;54;20027;31
2023/02/21 10:57:30;;;;;;;1.40;0.87;;;12.20;99.90;;;;;;2603988;54;20022;31
2023/02/21 11:06:45;;;;;;;1.60;1.10;;;11.70;99.90;;;;;;2603834;54;20140;31
2023/02/21 11:09:42;;;;;;;1.60;1.00;;;11.50;99.90;;;;;;2603457;54;20093;31
2023/02/21 11:12:44;;;;;;;1.73;1.17;;;11.30;99.90;;;;;;2603701;54;20030;31
2023/02/21 11:15:21;;;;;;;2.47;1.60;;;11.20;99.90;;;;;;2603574;54;21718;31
2023/02/21 11:18:20;;;;;;;3.00;2.05;;;11.20;99.90;;;;;;2621847;46;20864;31
2023/02/21 11:21:00;;;;;;;2.58;1.70;;;11.20;99.90;;;;;;2602846;54;20044;31
2023/02/21 11:23:36;;;;;;;2.75;1.38;;;11.20;99.90;;;;;;2602530;54;20031;31
2023/02/21 11:26:25;;;;;;;2.72;1.73;;;11.30;99.90;;;;;;2603567;54;20031;31
2023/02/21 11:29:23;;;;;;;4.28;2.70;;;11.60;99.90;;;;;;2603617;54;20866;31
2023/02/21 11:32:00;;;;;;;2.20;1.40;;;11.70;99.90;;;;;;2619235;46;20026;31
2023/02/21 11:38:08;;;;;;;2.20;1.30;;;11.90;99.90;;;;;;2603497;54;20863;31
2023/02/21 11:41:14;;;;;;;1.88;1.00;;;11.90;99.90;;;;;;2603902;54;20031;31
2023/02/21 11:44:21;;;;;;;2.55;1.10;;;12.00;99.90;;;;;;2603760;54;20033;31
2023/02/21 11:47:25;;;;;;;4.53;0.80;;;12.00;99.90;;;;;;2622072;46;25114;31
2023/02/21 11:50:10;;;;;;;2.07;0.77;;;12.00;99.90;;;;;;2603565;54;20030;31
2023/02/21 11:52:56;;;;;;;1.95;0.80;;;11.90;99.90;;;;;;2603693;54;20854;31
2023/02/21 11:55:50;;;;;;;0.95;0.70;;;11.80;99.90;;;;;;2603471;54;20884;31
2023/02/21 11:58:27;;;;;;;1.15;0.75;;;11.70;99.90;;;;;;2621860;46;20136;31
2023/02/21 12:01:28;;;;;;;1.60;0.60;;;11.70;99.90;;;;;;2603592;54;20764;31
2023/02/21 12:04:28;;;;;;;1.30;0.70;;;11.60;99.90;;;;;;2621562;46;20029;31
2023/02/21 12:10:04;;;;;;;1.60;1.00;;;11.50;99.90;;;;;;2603441;54;20851;31
2023/02/21 12:12:51;;;;;;;3.38;1.10;;;11.40;99.90;;;;;;2603498;54;20140;31
2023/02/21 12:15:41;;;;;;;2.43;1.00;;;11.40;99.90;;;;;;2621614;46;20878;31
2023/02/21 12:22:24;;;;;;;2.08;1.13;;;11.40;99.90;;;;;;2603455;54;20057;31
2023/02/21 12:25:19;;;;;;;2.83;1.20;;;11.40;99.90;;;;;;2604834;46;20892;31
2023/02/21 12:27:59;;;;;;;1.25;0.75;;;11.40;99.90;;;;;;2603491;54;20088;31
2023/02/21 12:31:08;;;;;;;1.10;0.60;;;11.40;99.90;;;;;;2621802;46;20111;31
2023/02/21 12:33:49;;;;;;;1.30;0.65;;;11.40;99.90;;;;;;2603358;54;20027;31
2023/02/21 12:36:50;;;;;;;3.20;0.75;;;11.40;99.90;;;;;;2603216;54;20802;31
2023/02/21 12:39:42;;;;;;;2.13;0.88;;;11.40;99.90;;;;;;2603758;54;20825;31
2023/02/21 12:42:48;;;;;;;1.10;0.70;;;11.50;99.90;;;;;;2603462;54;20026;31
2023/02/21 12:45:38;;;;;;;1.67;0.57;;;11.50;99.90;;;;;;2603408;54;20022;31
2023/02/21 12:48:24;;;;;;;0.98;0.52;;;11.60;99.90;;;;;;2603370;54;20023;31
2023/02/21 12:51:03;;;;;;;1.23;0.70;;;11.70;99.90;;;;;;2621324;46;20029;31
2023/02/21 12:53:47;;;;;;;1.98;0.60;;;11.70;99.90;;;;;;2603184;54;20749;31
2023/02/21 12:56:37;;;;;;;1.00;0.60;;;11.70;99.90;;;;;;2603497;54;20031;31
2023/02/21 13:01:51;;;;;;;2.50;0.60;;;11.70;99.90;;;;;;2603312;54;20671;31
2023/02/21 13:04:39;;;;;;;0.80;0.50;;;11.60;99.90;;;;;;2621180;46;20034;31
2023/02/21 13:10:24;;;;;;;1.40;0.63;;;11.60;99.90;;;;;;2603278;54;20908;31
2023/02/21 13:13:07;;;;;;;1.30;0.52;;;11.60;99.90;;;;;;2621857;46;20027;31
2023/02/21 13:15:46;;;;;;;0.97;0.53;;;11.60;99.90;;;;;;2603128;54;20871;31
2023/02/21 13:21:13;;;;;;;1.73;0.60;;;11.50;99.90;;;;;;2602956;54;24071;31
2023/02/21 13:29:50;;;;;;;1.63;0.70;;;11.50;99.90;;;;;;2603321;54;20031;31
2023/02/21 13:32:25;;;;;;;1.70;0.40;;;11.50;99.90;;;;;;2603470;54;20861;31
2023/02/21 13:35:22;;;;;;;1.07;0.50;;;11.50;99.90;;;;;;2603390;54;20032;31
2023/02/21 13:43:38;;;;;;;1.67;0.45;;;11.70;99.90;;;;;;2603413;54;20030;31
2023/02/21 13:47:13;;;;;;;0.90;0.50;;;11.70;99.90;;;;;;2621477;46;20927;31
2023/02/21 13:50:28;;;;;;;1.08;0.60;;;11.70;99.90;;;;;;2621397;46;20073;31
2023/02/21 13:53:20;;;;;;;2.03;0.45;;;11.70;99.90;;;;;;2603473;54;20807;31
2023/02/21 13:56:39;;;;;;;1.90;0.47;;;11.60;99.90;;;;;;2603018;54;20937;31
2023/02/21 13:59:54;;;;;;;2.00;0.75;;;11.60;99.90;;;;;;2603413;54;20022;31
2023/02/21 14:06:29;;;;;;;0.85;0.40;;;11.80;99.90;;;;;;2603049;54;20085;31
2023/02/21 14:09:19;;;;;;;0.63;0.40;;;11.80;99.90;;;;;;2603153;54;20120;31
2023/02/21 14:11:56;;;;;;;0.98;0.47;;;11.80;99.90;;;;;;2603780;54;20100;31
2023/02/21 14:14:41;;;;;;;1.10;0.40;;;11.80;99.90;;;;;;2603782;54;20170;31
2023/02/21 14:17:16;;;;;;;1.25;0.30;;;11.90;99.90;;;;;;2604036;54;20855;31
2023/02/21 14:19:58;;;;;;;1.10;0.40;;;12.00;99.90;;;;;;2603794;54;20900;31
2023/02/21 14:22:33;;;;;;;0.55;0.30;;;12.00;99.90;;;;;;2603985;54;20875;31
2023/02/21 14:25:22;;;;;;;0.60;0.30;;;12.10;99.90;;;;;;2603787;54;20030;31
2023/02/21 14:27:59;;;;;;;1.35;0.40;;;12.10;99.90;;;;;;2603741;54;20042;31
2023/02/21 14:30:51;;;;;;;0.73;0.32;;;12.10;99.90;;;;;;2622103;46;20026;31
2023/02/21 14:36:30;;;;;;;0.85;0.40;;;12.10;99.90;;;;;;2603872;54;20037;31
2023/02/21 14:39:15;;;;;;;0.80;0.30;;;12.10;99.90;;;;;;2604082;54;20022;31
2023/02/21 14:42:04;;;;;;;1.20;0.65;;;12.00;99.90;;;;;;2603827;54;20030;31
2023/02/21 14:45:08;;;;;;;1.40;0.60;;;11.90;99.90;;;;;;2604030;54;20030;31
2023/02/21 14:48:23;;;;;;;1.00;0.30;;;11.80;99.90;;;;;;2603628;54;20030;31
2023/02/21 14:51:12;;;;;;;1.85;0.38;;;11.60;99.90;;;;;;2602910;54;20855;31
2023/02/21 14:54:34;;;;;;;1.23;0.30;;;11.50;99.90;;;;;;2603628;54;20031;31
2023/02/21 14:57:36;;;;;;;0.50;0.30;;;11.40;99.90;;;;;;2603662;54;20740;31
2023/02/21 15:00:25;;;;;;;1.55;0.60;;;11.20;99.90;;;;;;2603371;54;20785;31
2023/02/21 15:03:07;;;;;;;1.10;0.50;;;11.20;99.90;;;;;;2603759;54;20086;31
2023/02/21 15:05:47;;;;;;;1.27;0.45;;;11.10;99.90;;;;;;2603770;54;20037;31
2023/02/21 15:08:28;;;;;;;2.05;0.60;;;11.00;99.90;;;;;;2603692;54;20027;31
2023/02/21 15:11:15;;;;;;;2.35;0.82;;;11.00;99.90;;;;;;2603954;54;20033;31
2023/02/21 15:14:21;;;;;;;1.05;0.40;;;11.00;99.90;;;;;;2603674;54;20034;31
2023/02/21 15:17:06;;;;;;;1.65;0.40;;;10.90;99.90;;;;;;2702219;39;21615;31
2023/02/21 15:20:11;;;;;;;3.95;0.40;;;10.90;99.90;;;;;;2622080;46;20026;31
2023/02/21 15:23:06;;;;;;;1.03;0.40;;;11.00;99.90;;;;;;2603378;54;20030;31
2023/02/21 15:25:44;;;;;;;0.88;0.40;;;10.90;99.90;;;;;;2622490;46;20804;31
2023/02/21 15:28:29;;;;;;;2.58;0.43;;;10.90;99.90;;;;;;2622240;46;20031;31
2023/02/21 15:31:07;;;;;;;1.20;0.40;;;10.90;99.90;;;;;;2622306;46;20037;31
2023/02/21 15:33:47;;;;;;;2.17;0.50;;;10.90;99.90;;;;;;2621896;46;20880;31
2023/02/21 15:36:25;;;;;;;1.42;0.47;;;10.90;99.90;;;;;;2603562;54;20811;31
2023/02/21 15:39:08;;;;;;;3.17;0.73;;;10.80;99.90;;;;;;2603717;54;20034;31
2023/02/21 15:44:42;;;;;;;3.03;0.73;;;10.80;99.90;;;;;;2622105;46;20119;31
2023/02/21 15:47:29;;;;;;;4.33;0.83;;;10.80;99.90;;;;;;2621935;46;20099;31
2023/02/21 15:50:08;;;;;;;2.90;0.95;;;10.80;99.90;;;;;;2603458;54;20046;31
2023/02/21 15:52:52;;;;;;;2.63;1.52;;;10.70;99.90;;;;;;2603811;54;20049;31
2023/02/21 15:55:56;;;;;;;4.32;1.33;;;10.70;99.90;;;;;;2603603;54;20040;31
2023/02/21 15:58:30;;;;;;;6.00;1.20;;;10.70;99.90;;;;;;2603422;54;20145;31
2023/02/21 16:01:09;;;;;;;5.65;1.45;;;10.60;99.90;;;;;;2621875;46;20093;31
2023/02/21 16:03:49;;;;;;;7.47;1.90;;;10.60;99.90;;;;;;2603526;54;20048;31
2023/02/21 16:06:28;;;;;;;6.18;1.60;;;10.50;99.90;;;;;;2603412;54;20879;31
2023/02/21 16:09:30;;;;;;;8.35;2.22;;;10.50;99.90;;;;;;2603530;54;20049;31
2023/02/21 16:12:12;;;;;;;5.32;2.30;;;10.40;99.90;;;;;;2603293;54;19965;31
2023/02/21 16:15:04;;;;;;;7.40;3.17;;;10.30;99.90;;;;;;2603471;54;20026;31
2023/02/21 16:17:52;;;;;;;10.77;3.72;;;10.30;99.90;;;;;;2603621;54;20023;31
2023/02/21 16:20:37;;;;;;;9.18;4.35;;;10.20;99.90;;;;;;2603539;54;20830;31
2023/02/21 16:23:29;;;;;;;7.90;3.90;;;10.10;99.90;;;;;;2621472;46;20824;31
2023/02/21 16:26:26;;;;;;;7.35;3.50;;;10.00;99.90;;;;;;2603501;54;20037;31
2023/02/21 16:29:05;;;;;;;8.55;4.70;;;10.00;99.90;;;;;;2603550;54;20034;31
2023/02/21 16:32:23;;;;;;;12.53;4.47;;;10.00;99.90;;;;;;2603210;54;20129;31
2023/02/21 16:35:08;;;;;;;7.35;3.25;;;9.90;99.90;;;;;;2621333;46;20065;31
2023/02/21 16:37:50;;;;;;;5.88;2.70;;;9.90;99.90;;;;;;2603288;54;20140;31
2023/02/21 16:40:34;;;;;;;7.87;3.17;;;9.90;99.90;;;;;;2603469;54;20025;31
2023/02/21 16:52:30;;;;;;;8.25;2.40;;;9.80;99.90;;;;;;2603189;54;20030;31
2023/02/21 16:55:33;;;;;;;6.05;2.38;;;9.70;99.90;;;;;;2603353;54;20049;31
2023/02/21 16:58:19;;;;;;;7.93;3.10;;;9.70;99.90;;;;;;2603319;54;20049;31
2023/02/21 17:01:05;;;;;;;8.88;3.33;;;9.70;99.90;;;;;;2603264;54;20045;31
2023/02/21 17:03:39;;;;;;;7.82;2.30;;;9.60;99.90;;;;;;2603316;54;20808;31
2023/02/21 17:06:37;;;;;;;8.43;2.08;;;9.60;99.90;;;;;;2603603;54;20026;31
2023/02/21 17:09:38;;;;;;;6.85;1.85;;;9.50;99.90;;;;;;2603355;54;20027;31
2023/02/21 17:15:20;;;;;;;9.85;4.00;;;9.50;99.90;;;;;;2605487;46;20815;31
2023/02/21 17:21:23;;;;;;;15.32;7.32;;;9.40;99.90;;;;;;2606199;46;20789;31
2023/02/21 17:26:58;;;;;;;10.60;5.50;;;9.40;99.90;;;;;;2603230;54;20030;31
2023/02/21 17:32:45;;;;;;;15.70;6.05;;;9.40;99.90;;;;;;2603049;54;20753;31
2023/02/21 17:35:27;;;;;;;20.05;6.95;;;9.40;99.90;;;;;;2603342;54;20029;31
2023/02/21 18:03:34;;;;;;;14.40;5.85;;;9.10;99.90;;;;;;2603030;54;20971;31
2023/02/21 18:06:50;;;;;;;21.20;5.43;;;9.10;99.90;;;;;;2603193;54;20123;31
2023/02/21 18:17:47;;;;;;;16.65;5.00;;;9.00;99.90;;;;;;2603114;54;20022;31
2023/02/21 18:30:02;;;;;;;15.25;4.80;;;8.90;99.90;;;;;;2602428;54;20034;31
2023/02/21 18:33:26;;;;;;;21.52;6.32;;;8.90;99.90;;;;;;2607367;47;20019;31
2023/02/21 18:42:17;;;;;;;17.80;5.88;;;8.80;99.90;;;;;;2602856;54;21535;31
2023/02/21 18:48:11;;;;;;;22.83;9.25;;;8.70;99.90;;;;;;2621449;47;20025;31
2023/02/21 18:51:15;;;;;;;23.63;8.48;;;8.70;99.90;;;;;;2602985;54;20608;31
2023/02/21 18:54:00;;;;;;;19.38;8.68;;;8.70;99.90;;;;;;2603098;54;20031;31
2023/02/21 18:57:05;;;;;;;21.58;9.07;;;8.70;99.90;;;;;;2602997;54;20023;31
2023/02/21 19:03:24;;;;;;;18.23;6.70;;;8.60;99.90;;;;;;2621746;46;19935;31
2023/02/21 19:06:07;;;;;;;18.50;4.95;;;8.60;99.90;;;;;;2603802;54;20930;31
2023/02/21 19:09:14;;;;;;;17.08;5.80;;;8.90;99.90;;;;;;2603597;54;20978;31
2023/02/21 19:12:06;;;;;;;15.57;5.72;;;9.00;99.90;;;;;;2603672;54;20914;31
2023/02/21 19:14:54;;;;;;;18.40;6.25;;;8.90;99.90;;;;;;2603590;54;20049;31
2023/02/21 19:17:30;;;;;;;18.73;6.00;;;8.90;99.90;;;;;;2603558;54;20019;31
2023/02/21 19:20:18;;;;;;;18.10;6.82;;;8.80;99.90;;;;;;2603755;54;20025;31
2023/02/21 19:22:54;;;;;;;19.92;5.60;;;8.70;99.90;;;;;;2603532;54;20030;31
2023/02/21 19:25:44;;;;;;;20.20;6.10;;;8.70;99.90;;;;;;2603742;54;20026;31
2023/02/21 19:28:28;;;;;;;19.45;6.65;;;8.60;99.90;;;;;;2603697;54;20031;31
2023/02/21 19:31:09;;;;;;;21.73;6.38;;;8.50;99.90;;;;;;2622126;46;20026;31
2023/02/21 19:33:46;;;;;;;21.75;7.88;;;8.50;99.90;;;;;;2603525;54;20030;31
2023/02/21 19:36:25;;;;;;;18.90;6.57;;;8.40;99.90;;;;;;2603636;54;20026;31
2023/02/21 19:39:03;;;;;;;20.13;7.32;;;8.40;99.90;;;;;;2603453;54;20027;31
2023/02/21 19:41:41;;;;;;;16.02;6.20;;;8.30;99.90;;;;;;2621999;46;20093;31
2023/02/21 19:44:25;;;;;;;18.52;6.15;;;8.30;99.90;;;;;;2603300;54;20887;31
2023/02/21 19:47:07;;;;;;;23.80;5.57;;;8.30;99.90;;;;;;2621968;46;20949;31
2023/02/21 19:49:46;;;;;;;19.40;4.70;;;8.30;99.90;;;;;;2603253;54;20034;31
2023/02/21 19:52:31;;;;;;;16.13;4.32;;;8.20;99.90;;;;;;2622221;46;20850;31
2023/02/21 19:55:19;;;;;;;13.90;3.85;;;8.20;99.90;;;;;;2603868;54;20868;31
2023/02/21 19:57:56;;;;;;;12.18;3.70;;;8.10;99.90;;;;;;2603293;54;20131;31
2023/02/21 20:00:42;;;;;;;14.82;3.58;;;8.10;99.90;;;;;;2621860;46;20985;31
2023/02/21 20:03:20;;;;;;;21.85;4.15;;;8.10;99.90;;;;;;2603519;54;20027;31
2023/02/21 20:06:02;;;;;;;11.23;3.97;;;8.10;99.90;;;;;;2603600;54;20592;31
2023/02/21 20:08:46;;;;;;;12.35;3.10;;;8.10;99.90;;;;;;2603906;54;20026;31
2023/02/21 20:11:23;;;;;;;15.53;3.57;;;8.10;99.90;;;;;;2603639;54;20061;31
2023/02/21 20:14:02;;;;;;;15.60;3.55;;;8.10;99.90;;;;;;2603320;54;20168;31
2023/02/21 20:16:45;;;;;;;14.60;3.53;;;8.10;99.90;;;;;;2621859;46;20053;31
2023/02/21 20:19:26;;;;;;;12.68;3.47;;;8.10;99.90;;;;;;2603402;54;20679;31
2023/02/21 20:22:01;;;;;;;15.20;3.75;;;8.00;99.90;;;;;;2603224;54;20740;31
2023/02/21 20:24:40;;;;;;;11.75;3.03;;;8.00;99.90;;;;;;2603331;54;20057;31
2023/02/21 20:27:19;;;;;;;15.23;4.60;;;8.00;99.90;;;;;;2603356;54;20022;31
2023/02/21 20:29:59;;;;;;;12.35;3.15;;;8.00;99.90;;;;;;2613931;46;20035;31
2023/02/21 20:32:40;;;;;;;15.85;2.95;;;7.90;99.90;;;;;;2602724;54;20882;31
2023/02/21 20:35:23;;;;;;;15.57;3.23;;;7.90;99.90;;;;;;2604052;46;20116;31
2023/02/21 20:38:04;;;;;;;15.68;3.42;;;7.90;99.90;;;;;;2602631;54;20027;31
2023/02/21 20:40:44;;;;;;;18.83;4.00;;;7.90;99.90;;;;;;2602654;54;20026;31
2023/02/21 20:43:24;;;;;;;16.63;3.90;;;7.80;99.90;;;;;;2603367;54;20793;31
2023/02/21 20:46:00;;;;;;;15.80;3.33;;;7.80;99.90;;;;;;2621664;46;20822;31
2023/02/21 20:48:40;;;;;;;22.77;4.18;;;7.80;99.90;;;;;;2602764;54;20034;31
2023/02/21 20:51:19;;;;;;;20.17;4.07;;;7.70;99.90;;;;;;2603204;54;20034;31
2023/02/21 20:53:59;;;;;;;17.50;3.35;;;7.70;99.90;;;;;;2603460;54;20037;31
2023/02/21 20:56:38;;;;;;;10.60;2.72;;;7.70;99.90;;;;;;2621909;46;20027;31
2023/02/21 20:59:14;;;;;;;13.25;3.55;;;7.70;99.90;;;;;;2603527;54;20037;31
2023/02/21 21:01:50;;;;;;;15.60;3.00;;;7.70;99.90;;;;;;2621788;46;20095;31
2023/02/21 21:04:30;;;;;;;13.73;2.60;;;7.70;99.90;;;;;;2603238;54;20922;31
2023/02/21 21:07:11;;;;;;;17.15;3.13;;;7.60;99.90;;;;;;2603587;54;20863;31
2023/02/21 21:09:48;;;;;;;13.45;2.30;;;7.60;99.90;;;;;;2603535;54;20615;31
2023/02/21 21:12:25;;;;;;;14.35;3.15;;;7.60;99.90;;;;;;2603407;54;21048;31
2023/02/21 21:15:08;;;;;;;15.32;4.05;;;7.60;99.90;;;;;;2603414;54;20880;31
2023/02/21 21:17:45;;;;;;;14.75;3.05;;;7.60;99.90;;;;;;2603440;54;20026;31
2023/02/21 21:20:25;;;;;;;18.23;3.30;;;7.50;99.90;;;;;;2603289;54;20915;31
2023/02/21 21:23:01;;;;;;;17.15;2.90;;;7.50;99.90;;;;;;2603085;54;20046;31
2023/02/21 21:25:40;;;;;;;;;;;7.50;99.90;;;;;;2603366;54;20046;31
2023/02/21 21:28:17;;;;;;;12.45;2.75;;;7.40;99.90;;;;;;2602449;54;20659;31
2023/02/21 21:30:58;;;;;;;15.65;3.00;;;7.40;99.90;;;;;;2603269;54;20816;31
2023/02/21 21:36:18;;;;;;;14.15;3.50;;;7.40;99.90;;;;;;2720239;39;20505;31
2023/02/21 21:38:58;;;;;;;15.18;4.10;;;7.40;99.90;;;;;;2603286;54;20819;31
2023/02/21 21:41:37;;;;;;;17.73;3.33;;;7.40;99.90;;;;;;2603240;54;20080;31
2023/02/21 21:44:16;;;;;;;13.95;2.80;;;7.30;99.90;;;;;;2603079;54;20903;31
2023/02/21 21:46:59;;;;;;;14.45;3.60;;;7.30;99.90;;;;;;2603312;54;20030;31
2023/02/21 21:49:35;;;;;;;14.95;4.35;;;7.30;99.90;;;;;;2603360;54;20031;31
2023/02/21 21:52:16;;;;;;;14.20;3.70;;;7.30;99.90;;;;;;2603121;54;20172;31
2023/02/21 21:54:53;;;;;;;15.15;4.63;;;7.30;99.90;;;;;;2602961;54;20049;31
2023/02/21 21:57:30;;;;;;;17.38;4.10;;;7.30;99.90;;;;;;2603069;54;20026;31
2023/02/21 22:00:20;;;;;;;18.77;5.20;;;7.30;99.90;;;;;;2603298;54;20026;31
2023/02/21 22:03:00;;;;;;;17.20;5.15;;;7.30;99.90;;;;;;2603437;54;20022;31
2023/02/21 22:05:45;;;;;;;15.55;4.45;;;7.30;99.90;;;;;;2603016;54;20038;31
2023/02/21 22:08:29;;;;;;;16.90;5.85;;;7.30;99.90;;;;;;2701413;39;20650;31
2023/02/21 22:11:08;;;;;;;22.05;5.97;;;7.30;99.90;;;;;;2602241;54;20089;31
2023/02/21 22:13:46;;;;;;;19.23;6.68;;;7.30;99.90;;;;;;2603288;54;20038;31
2023/02/21 22:16:23;;;;;;;19.42;5.78;;;7.30;99.90;;;;;;2603003;54;20045;31
2023/02/21 22:19:00;;;;;;;30.23;6.57;;;7.30;99.90;;;;;;2603262;54;20904;31
2023/02/21 22:21:41;;;;;;;19.20;5.53;;;7.30;99.90;;;;;;2602788;54;20026;31
2023/02/21 22:24:21;;;;;;;16.55;5.65;;;7.20;99.90;;;;;;2602349;54;20041;31
2023/02/21 22:27:00;;;;;;;18.90;5.90;;;7.20;99.90;;;;;;2602387;54;20887;31
2023/02/21 22:29:39;;;;;;;18.40;6.25;;;7.20;99.90;;;;;;2602966;54;20022;31
2023/02/21 22:32:24;;;;;;;21.50;7.23;;;7.20;99.90;;;;;;2603164;54;20037;31
2023/02/21 22:37:33;;;;;;;21.40;7.38;;;7.20;99.90;;;;;;2622049;46;20038;31
2023/02/21 22:40:16;;;;;;;13.35;4.60;;;7.20;99.90;;;;;;2622373;46;20030;31
2023/02/21 22:42:54;;;;;;;21.85;6.72;;;7.40;99.90;;;;;;2603522;54;20050;31
2023/02/21 22:48:27;;;;;;;19.55;7.03;;;7.40;99.90;;;;;;2603186;54;20929;31
2023/02/21 22:57:14;;;;;;;14.90;5.80;;;7.20;99.90;;;;;;2603001;54;20837;31
2023/02/21 22:59:54;;;;;;;22.33;5.30;;;7.20;99.90;;;;;;2602856;54;20072;31
2023/02/21 23:02:36;;;;;;;17.40;5.80;;;7.20;99.90;;;;;;2622251;46;20312;31
2023/02/21 23:05:18;;;;;;;19.50;6.18;;;7.20;99.90;;;;;;2603643;54;20777;31
2023/02/21 23:08:07;;;;;;;19.80;5.93;;;7.10;99.90;;;;;;2603844;54;20852;31
2023/02/21 23:10:50;;;;;;;14.80;5.83;;;7.10;99.90;;;;;;2603768;54;20061;31
2023/02/21 23:13:27;;;;;;;20.05;6.40;;;7.10;99.90;;;;;;2702015;39;21707;31
2023/02/21 23:19:25;;;;;;;18.27;5.25;;;7.00;99.90;;;;;;2603858;54;20031;31
2023/02/21 23:22:04;;;;;;;16.92;6.10;;;7.00;99.90;;;;;;2622501;46;20927;31